sensor_id;sensor_type;location;lat;lon;timestamp;temperature;humidity
77519;DHT22;66629;47.346;19.038;2023-02-24T00:01:34;7.73;71.72
77519;DHT22;66629;47.346;19.038;2023-02-24T00:04:07;7.73;71.58
77519;DHT22;66629;47.346;19.038;2023-02-24T00:06:35;7.74;71.67
77519;DHT22;66629;47.346;19.038;2023-02-24T00:09:27;7.69;71.41
77519;DHT22;66629;47.346;19.038;2023-02-24T00:11:55;7.71;71.37
77519;DHT22;66629;47.346;19.038;2023-02-24T00:14:22;7.71;71.35
77519;DHT22;66629;47.346;19.038;2023-02-24T00:16:50;7.70;71.76
77519;DHT22;66629;47.346;19.038;2023-02-24T00:19:19;7.70;72.09
77519;DHT22;66629;47.346;19.038;2023-02-24T00:21:45;7.71;72.14
77519;DHT22;66629;47.346;19.038;2023-02-24T00:24:11;7.67;72.17
77519;DHT22;66629;47.346;19.038;2023-02-24T00:26:37;7.69;72.54
77519;DHT22;66629;47.346;19.038;2023-02-24T00:29:04;7.66;73.29
77519;DHT22;66629;47.346;19.038;2023-02-24T00:31:31;7.63;73.15
77519;DHT22;66629;47.346;19.038;2023-02-24T00:33:58;7.60;73.51
77519;DHT22;66629;47.346;19.038;2023-02-24T00:36:25;7.64;73.38
77519;DHT22;66629;47.346;19.038;2023-02-24T00:38:56;7.64;73.71
77519;DHT22;66629;47.346;19.038;2023-02-24T00:41:24;7.61;74.14
77519;DHT22;66629;47.346;19.038;2023-02-24T00:43:54;7.63;74.71
77519;DHT22;66629;47.346;19.038;2023-02-24T00:46:22;7.64;74.71
77519;DHT22;66629;47.346;19.038;2023-02-24T00:48:50;7.63;74.90
77519;DHT22;66629;47.346;19.038;2023-02-24T00:51:21;7.57;75.09
77519;DHT22;66629;47.346;19.038;2023-02-24T00:53:51;7.56;75.80
77519;DHT22;66629;47.346;19.038;2023-02-24T00:56:25;7.54;76.39
77519;DHT22;66629;47.346;19.038;2023-02-24T00:58:56;7.53;75.27
77519;DHT22;66629;47.346;19.038;2023-02-24T01:01:28;7.50;75.34
77519;DHT22;66629;47.346;19.038;2023-02-24T01:03:55;7.50;77.02
77519;DHT22;66629;47.346;19.038;2023-02-24T01:06:23;7.49;76.08
77519;DHT22;66629;47.346;19.038;2023-02-24T01:08:51;7.50;75.71
77519;DHT22;66629;47.346;19.038;2023-02-24T01:11:20;7.54;75.53
77519;DHT22;66629;47.346;19.038;2023-02-24T01:14:11;7.52;76.37
77519;DHT22;66629;47.346;19.038;2023-02-24T01:16:38;7.46;76.76
77519;DHT22;66629;47.346;19.038;2023-02-24T01:19:06;7.42;77.07
77519;DHT22;66629;47.346;19.038;2023-02-24T01:21:33;7.43;77.20
77519;DHT22;66629;47.346;19.038;2023-02-24T01:23:59;7.52;76.50
77519;DHT22;66629;47.346;19.038;2023-02-24T01:26:25;7.36;76.86
77519;DHT22;66629;47.346;19.038;2023-02-24T01:28:52;7.36;76.73
77519;DHT22;66629;47.346;19.038;2023-02-24T01:31:18;7.36;77.58
77519;DHT22;66629;47.346;19.038;2023-02-24T01:33:50;7.33;77.31
77519;DHT22;66629;47.346;19.038;2023-02-24T01:36:20;7.33;78.02
77519;DHT22;66629;47.346;19.038;2023-02-24T01:38:46;7.30;78.13
77519;DHT22;66629;47.346;19.038;2023-02-24T01:41:16;7.30;79.21
77519;DHT22;66629;47.346;19.038;2023-02-24T01:46:33;7.26;79.01
77519;DHT22;66629;47.346;19.038;2023-02-24T01:49:06;7.25;79.55
77519;DHT22;66629;47.346;19.038;2023-02-24T01:51:38;7.28;78.29
77519;DHT22;66629;47.346;19.038;2023-02-24T01:54:07;7.35;78.37
77519;DHT22;66629;47.346;19.038;2023-02-24T01:56:35;7.35;78.21
77519;DHT22;66629;47.346;19.038;2023-02-24T01:59:01;7.33;78.19
77519;DHT22;66629;47.346;19.038;2023-02-24T02:01:27;7.37;77.42
77519;DHT22;66629;47.346;19.038;2023-02-24T02:03:58;7.36;77.04
77519;DHT22;66629;47.346;19.038;2023-02-24T02:06:26;7.40;77.33
77519;DHT22;66629;47.346;19.038;2023-02-24T02:08:52;7.35;77.33
77519;DHT22;66629;47.346;19.038;2023-02-24T02:11:18;7.30;77.74
77519;DHT22;66629;47.346;19.038;2023-02-24T02:13:45;7.30;77.49
77519;DHT22;66629;47.346;19.038;2023-02-24T02:19:15;7.35;77.85
77519;DHT22;66629;47.346;19.038;2023-02-24T02:25:05;7.26;77.71
77519;DHT22;66629;47.346;19.038;2023-02-24T02:27:59;7.25;78.07
77519;DHT22;66629;47.346;19.038;2023-02-24T02:30:59;7.23;78.08
77519;DHT22;66629;47.346;19.038;2023-02-24T02:33:57;7.22;77.70
77519;DHT22;66629;47.346;19.038;2023-02-24T02:39:41;7.29;77.34
77519;DHT22;66629;47.346;19.038;2023-02-24T02:47:43;7.22;78.10
77519;DHT22;66629;47.346;19.038;2023-02-24T02:50:24;7.20;79.03
77519;DHT22;66629;47.346;19.038;2023-02-24T02:52:58;7.20;79.59
77519;DHT22;66629;47.346;19.038;2023-02-24T02:56:01;7.16;78.63
77519;DHT22;66629;47.346;19.038;2023-02-24T02:58:31;7.16;78.34
77519;DHT22;66629;47.346;19.038;2023-02-24T03:01:00;7.22;77.57
77519;DHT22;66629;47.346;19.038;2023-02-24T03:03:42;7.19;77.35
77519;DHT22;66629;47.346;19.038;2023-02-24T03:06:16;7.20;76.56
77519;DHT22;66629;47.346;19.038;2023-02-24T03:08:54;7.20;76.23
77519;DHT22;66629;47.346;19.038;2023-02-24T03:11:20;7.18;76.34
77519;DHT22;66629;47.346;19.038;2023-02-24T03:13:49;7.14;77.07
77519;DHT22;66629;47.346;19.038;2023-02-24T03:16:16;7.14;78.14
77519;DHT22;66629;47.346;19.038;2023-02-24T03:18:48;7.19;75.86
77519;DHT22;66629;47.346;19.038;2023-02-24T03:21:39;7.20;75.14
77519;DHT22;66629;47.346;19.038;2023-02-24T03:24:07;7.18;75.86
77519;DHT22;66629;47.346;19.038;2023-02-24T03:26:46;7.16;76.23
77519;DHT22;66629;47.346;19.038;2023-02-24T03:29:17;7.19;75.75
77519;DHT22;66629;47.346;19.038;2023-02-24T03:32:04;7.16;75.95
77519;DHT22;66629;47.346;19.038;2023-02-24T03:34:59;7.14;76.21
77519;DHT22;66629;47.346;19.038;2023-02-24T03:37:27;7.19;75.80
77519;DHT22;66629;47.346;19.038;2023-02-24T03:39:58;7.14;75.90
77519;DHT22;66629;47.346;19.038;2023-02-24T03:42:33;7.15;75.94
77519;DHT22;66629;47.346;19.038;2023-02-24T03:44:59;7.18;76.35
77519;DHT22;66629;47.346;19.038;2023-02-24T03:47:25;7.14;77.04
77519;DHT22;66629;47.346;19.038;2023-02-24T03:49:51;7.08;77.06
77519;DHT22;66629;47.346;19.038;2023-02-24T04:03:32;7.11;77.44
77519;DHT22;66629;47.346;19.038;2023-02-24T04:08:25;7.08;77.81
77519;DHT22;66629;47.346;19.038;2023-02-24T04:11:10;7.08;77.66
77519;DHT22;66629;47.346;19.038;2023-02-24T04:13:44;7.22;77.30
77519;DHT22;66629;47.346;19.038;2023-02-24T04:16:41;7.11;77.58
77519;DHT22;66629;47.346;19.038;2023-02-24T04:19:13;7.07;77.47
77519;DHT22;66629;47.346;19.038;2023-02-24T04:21:41;7.09;77.65
77519;DHT22;66629;47.346;19.038;2023-02-24T04:24:09;7.08;78.10
77519;DHT22;66629;47.346;19.038;2023-02-24T04:26:42;7.12;77.76
77519;DHT22;66629;47.346;19.038;2023-02-24T04:29:09;7.09;78.00
77519;DHT22;66629;47.346;19.038;2023-02-24T04:31:44;7.08;78.11
77519;DHT22;66629;47.346;19.038;2023-02-24T04:34:11;7.14;77.84
77519;DHT22;66629;47.346;19.038;2023-02-24T04:36:36;7.11;78.13
77519;DHT22;66629;47.346;19.038;2023-02-24T04:39:03;7.07;78.40
77519;DHT22;66629;47.346;19.038;2023-02-24T04:41:29;6.97;78.46
77519;DHT22;66629;47.346;19.038;2023-02-24T04:43:54;6.95;79.03
77519;DHT22;66629;47.346;19.038;2023-02-24T04:46:20;6.93;79.37
77519;DHT22;66629;47.346;19.038;2023-02-24T04:48:47;6.94;79.19
77519;DHT22;66629;47.346;19.038;2023-02-24T04:51:12;6.91;79.21
77519;DHT22;66629;47.346;19.038;2023-02-24T04:53:38;6.91;79.04
77519;DHT22;66629;47.346;19.038;2023-02-24T04:56:04;6.91;79.33
77519;DHT22;66629;47.346;19.038;2023-02-24T04:58:34;6.93;79.31
77519;DHT22;66629;47.346;19.038;2023-02-24T05:01:05;6.93;79.06
77519;DHT22;66629;47.346;19.038;2023-02-24T05:03:32;6.97;79.11
77519;DHT22;66629;47.346;19.038;2023-02-24T05:05:59;6.94;79.20
77519;DHT22;66629;47.346;19.038;2023-02-24T05:08:27;6.91;79.57
77519;DHT22;66629;47.346;19.038;2023-02-24T05:10:53;6.91;79.65
77519;DHT22;66629;47.346;19.038;2023-02-24T05:13:24;6.87;80.02
77519;DHT22;66629;47.346;19.038;2023-02-24T05:15:57;6.81;80.25
77519;DHT22;66629;47.346;19.038;2023-02-24T05:18:22;6.83;80.41
77519;DHT22;66629;47.346;19.038;2023-02-24T05:20:53;6.80;80.47
77519;DHT22;66629;47.346;19.038;2023-02-24T05:23:40;6.79;80.24
77519;DHT22;66629;47.346;19.038;2023-02-24T05:26:10;6.77;80.46
77519;DHT22;66629;47.346;19.038;2023-02-24T05:28:36;6.77;80.44
77519;DHT22;66629;47.346;19.038;2023-02-24T05:31:05;6.77;80.52
77519;DHT22;66629;47.346;19.038;2023-02-24T05:33:33;6.76;80.85
77519;DHT22;66629;47.346;19.038;2023-02-24T05:36:05;6.75;80.86
77519;DHT22;66629;47.346;19.038;2023-02-24T05:38:33;6.77;80.79
77519;DHT22;66629;47.346;19.038;2023-02-24T05:41:10;6.77;80.75
77519;DHT22;66629;47.346;19.038;2023-02-24T05:43:44;6.76;80.85
77519;DHT22;66629;47.346;19.038;2023-02-24T05:46:19;6.73;81.03
77519;DHT22;66629;47.346;19.038;2023-02-24T05:48:49;6.73;81.15
77519;DHT22;66629;47.346;19.038;2023-02-24T05:51:15;6.75;80.95
77519;DHT22;66629;47.346;19.038;2023-02-24T05:53:41;6.73;81.18
77519;DHT22;66629;47.346;19.038;2023-02-24T05:56:08;6.75;81.37
77519;DHT22;66629;47.346;19.038;2023-02-24T05:58:33;6.73;81.84
77519;DHT22;66629;47.346;19.038;2023-02-24T06:01:08;6.75;81.31
77519;DHT22;66629;47.346;19.038;2023-02-24T06:03:33;6.76;81.60
77519;DHT22;66629;47.346;19.038;2023-02-24T06:06:01;6.76;81.54
77519;DHT22;66629;47.346;19.038;2023-02-24T06:08:33;6.80;81.73
77519;DHT22;66629;47.346;19.038;2023-02-24T06:11:09;6.77;81.93
77519;DHT22;66629;47.346;19.038;2023-02-24T06:13:38;6.80;81.82
77519;DHT22;66629;47.346;19.038;2023-02-24T06:16:07;6.80;81.95
77519;DHT22;66629;47.346;19.038;2023-02-24T06:18:32;6.83;81.82
77519;DHT22;66629;47.346;19.038;2023-02-24T06:21:01;6.83;82.28
77519;DHT22;66629;47.346;19.038;2023-02-24T06:23:27;6.90;82.29
77519;DHT22;66629;47.346;19.038;2023-02-24T06:25:52;6.84;82.41
77519;DHT22;66629;47.346;19.038;2023-02-24T06:28:22;6.83;82.40
77519;DHT22;66629;47.346;19.038;2023-02-24T06:30:49;6.83;82.44
77519;DHT22;66629;47.346;19.038;2023-02-24T06:33:14;6.86;82.47
77519;DHT22;66629;47.346;19.038;2023-02-24T06:35:40;6.86;82.71
77519;DHT22;66629;47.346;19.038;2023-02-24T06:38:06;6.84;82.91
77519;DHT22;66629;47.346;19.038;2023-02-24T06:40:32;6.86;82.85
77519;DHT22;66629;47.346;19.038;2023-02-24T06:42:57;6.87;82.95
77519;DHT22;66629;47.346;19.038;2023-02-24T06:45:23;6.93;82.78
77519;DHT22;66629;47.346;19.038;2023-02-24T06:47:50;6.98;82.65
77519;DHT22;66629;47.346;19.038;2023-02-24T06:50:17;7.08;82.76
77519;DHT22;66629;47.346;19.038;2023-02-24T06:52:46;7.09;82.47
77519;DHT22;66629;47.346;19.038;2023-02-24T06:55:13;7.12;82.70
77519;DHT22;66629;47.346;19.038;2023-02-24T06:57:53;7.22;82.43
77519;DHT22;66629;47.346;19.038;2023-02-24T07:00:23;7.23;82.44
77519;DHT22;66629;47.346;19.038;2023-02-24T07:02:51;7.23;82.54
77519;DHT22;66629;47.346;19.038;2023-02-24T07:05:17;7.20;82.64
77519;DHT22;66629;47.346;19.038;2023-02-24T07:07:43;7.29;82.80
77519;DHT22;66629;47.346;19.038;2023-02-24T07:10:11;7.32;82.74
77519;DHT22;66629;47.346;19.038;2023-02-24T07:12:38;7.33;82.49
77519;DHT22;66629;47.346;19.038;2023-02-24T07:15:08;7.36;82.73
77519;DHT22;66629;47.346;19.038;2023-02-24T07:17:34;7.39;82.60
77519;DHT22;66629;47.346;19.038;2023-02-24T07:20:00;7.50;82.47
77519;DHT22;66629;47.346;19.038;2023-02-24T07:22:36;7.63;81.93
77519;DHT22;66629;47.346;19.038;2023-02-24T07:25:02;7.61;81.76
77519;DHT22;66629;47.346;19.038;2023-02-24T07:27:29;7.66;81.77
77519;DHT22;66629;47.346;19.038;2023-02-24T07:29:54;7.70;81.75
77519;DHT22;66629;47.346;19.038;2023-02-24T07:32:20;7.75;81.47
77519;DHT22;66629;47.346;19.038;2023-02-24T07:34:46;7.84;81.56
77519;DHT22;66629;47.346;19.038;2023-02-24T07:37:12;7.98;80.67
77519;DHT22;66629;47.346;19.038;2023-02-24T07:39:38;8.22;79.88
77519;DHT22;66629;47.346;19.038;2023-02-24T07:42:06;8.38;79.59
77519;DHT22;66629;47.346;19.038;2023-02-24T07:44:31;8.75;78.55
77519;DHT22;66629;47.346;19.038;2023-02-24T07:46:57;8.61;78.36
77519;DHT22;66629;47.346;19.038;2023-02-24T07:49:23;8.78;78.09
77519;DHT22;66629;47.346;19.038;2023-02-24T07:51:50;8.83;77.18
77519;DHT22;66629;47.346;19.038;2023-02-24T07:54:21;8.95;77.39
77519;DHT22;66629;47.346;19.038;2023-02-24T07:56:48;8.76;77.25
77519;DHT22;66629;47.346;19.038;2023-02-24T07:59:28;8.81;77.80
77519;DHT22;66629;47.346;19.038;2023-02-24T08:01:54;8.93;76.89
77519;DHT22;66629;47.346;19.038;2023-02-24T08:04:26;9.07;76.95
77519;DHT22;66629;47.346;19.038;2023-02-24T08:06:52;9.06;76.45
77519;DHT22;66629;47.346;19.038;2023-02-24T08:09:26;9.10;76.23
77519;DHT22;66629;47.346;19.038;2023-02-24T08:12:16;9.21;76.30
77519;DHT22;66629;47.346;19.038;2023-02-24T08:14:44;9.16;76.30
77519;DHT22;66629;47.346;19.038;2023-02-24T08:17:15;9.35;76.23
77519;DHT22;66629;47.346;19.038;2023-02-24T08:19:45;9.49;75.92
77519;DHT22;66629;47.346;19.038;2023-02-24T08:22:11;9.63;75.81
77519;DHT22;66629;47.346;19.038;2023-02-24T08:27:24;9.63;74.77
77519;DHT22;66629;47.346;19.038;2023-02-24T08:29:52;9.78;74.78
77519;DHT22;66629;47.346;19.038;2023-02-24T08:34:58;10.01;73.94
77519;DHT22;66629;47.346;19.038;2023-02-24T08:37:28;10.20;73.26
77519;DHT22;66629;47.346;19.038;2023-02-24T08:39:58;10.20;73.32
77519;DHT22;66629;47.346;19.038;2023-02-24T08:42:24;10.38;73.10
77519;DHT22;66629;47.346;19.038;2023-02-24T08:44:59;10.58;72.27
77519;DHT22;66629;47.346;19.038;2023-02-24T08:47:26;10.59;71.24
77519;DHT22;66629;47.346;19.038;2023-02-24T08:49:56;10.76;72.02
77519;DHT22;66629;47.346;19.038;2023-02-24T08:52:25;10.93;70.78
77519;DHT22;66629;47.346;19.038;2023-02-24T08:54:52;11.19;70.53
77519;DHT22;66629;47.346;19.038;2023-02-24T08:57:25;11.39;69.42
77519;DHT22;66629;47.346;19.038;2023-02-24T08:59:51;11.67;68.86
77519;DHT22;66629;47.346;19.038;2023-02-24T09:02:23;11.84;68.76
77519;DHT22;66629;47.346;19.038;2023-02-24T09:04:57;11.99;68.73
77519;DHT22;66629;47.346;19.038;2023-02-24T09:09:49;12.71;66.17
77519;DHT22;66629;47.346;19.038;2023-02-24T09:12:15;12.77;66.04
77519;DHT22;66629;47.346;19.038;2023-02-24T09:14:49;12.96;65.45
77519;DHT22;66629;47.346;19.038;2023-02-24T09:17:15;13.37;64.12
77519;DHT22;66629;47.346;19.038;2023-02-24T09:19:49;13.67;63.05
77519;DHT22;66629;47.346;19.038;2023-02-24T09:22:19;13.43;63.69
77519;DHT22;66629;47.346;19.038;2023-02-24T09:27:47;13.51;63.74
77519;DHT22;66629;47.346;19.038;2023-02-24T09:30:22;13.82;62.87
77519;DHT22;66629;47.346;19.038;2023-02-24T09:38:39;13.90;62.53
77519;DHT22;66629;47.346;19.038;2023-02-24T09:52:48;13.15;65.12
77519;DHT22;66629;47.346;19.038;2023-02-24T09:58:11;13.51;63.49
77519;DHT22;66629;47.346;19.038;2023-02-24T10:06:43;14.62;61.76
77519;DHT22;66629;47.346;19.038;2023-02-24T10:11:43;14.67;61.40
77519;DHT22;66629;47.346;19.038;2023-02-24T10:14:26;14.46;62.53
77519;DHT22;66629;47.346;19.038;2023-02-24T10:16:54;14.55;61.95
77519;DHT22;66629;47.346;19.038;2023-02-24T10:19:43;14.60;61.04
77519;DHT22;66629;47.346;19.038;2023-02-24T10:28:03;14.67;61.76
77519;DHT22;66629;47.346;19.038;2023-02-24T10:35:43;15.17;59.96
77519;DHT22;66629;47.346;19.038;2023-02-24T10:38:08;15.32;59.86
77519;DHT22;66629;47.346;19.038;2023-02-24T10:40:48;15.02;59.75
77519;DHT22;66629;47.346;19.038;2023-02-24T10:43:24;14.99;60.39
77519;DHT22;66629;47.346;19.038;2023-02-24T10:46:21;15.16;60.05
77519;DHT22;66629;47.346;19.038;2023-02-24T10:48:55;15.24;59.21
77519;DHT22;66629;47.346;19.038;2023-02-24T10:51:28;15.23;59.35
77519;DHT22;66629;47.346;19.038;2023-02-24T10:57:01;15.38;58.56
77519;DHT22;66629;47.346;19.038;2023-02-24T10:59:52;15.31;59.05
77519;DHT22;66629;47.346;19.038;2023-02-24T11:02:37;15.63;58.55
77519;DHT22;66629;47.346;19.038;2023-02-24T11:05:24;15.63;58.41
77519;DHT22;66629;47.346;19.038;2023-02-24T11:10:50;15.91;57.19
77519;DHT22;66629;47.346;19.038;2023-02-24T11:13:23;15.65;57.87
77519;DHT22;66629;47.346;19.038;2023-02-24T11:16:08;15.80;58.07
77519;DHT22;66629;47.346;19.038;2023-02-24T11:18:53;15.97;57.33
77519;DHT22;66629;47.346;19.038;2023-02-24T11:21:24;16.24;56.34
77519;DHT22;66629;47.346;19.038;2023-02-24T11:23:53;16.28;56.14
77519;DHT22;66629;47.346;19.038;2023-02-24T11:26:22;16.17;56.78
77519;DHT22;66629;47.346;19.038;2023-02-24T11:29:16;16.28;56.44
77519;DHT22;66629;47.346;19.038;2023-02-24T11:34:44;16.29;56.17
77519;DHT22;66629;47.346;19.038;2023-02-24T11:37:37;15.67;56.98
77519;DHT22;66629;47.346;19.038;2023-02-24T11:40:21;15.73;56.53
77519;DHT22;66629;47.346;19.038;2023-02-24T11:43:02;15.89;56.85
77519;DHT22;66629;47.346;19.038;2023-02-24T11:45:39;16.10;56.56
77519;DHT22;66629;47.346;19.038;2023-02-24T11:48:33;16.17;56.26
77519;DHT22;66629;47.346;19.038;2023-02-24T11:51:18;16.20;55.34
77519;DHT22;66629;47.346;19.038;2023-02-24T11:53:53;15.87;56.03
77519;DHT22;66629;47.346;19.038;2023-02-24T11:56:30;15.85;56.75
77519;DHT22;66629;47.346;19.038;2023-02-24T12:04:58;16.32;56.30
77519;DHT22;66629;47.346;19.038;2023-02-24T12:10:22;16.46;57.13
77519;DHT22;66629;47.346;19.038;2023-02-24T12:15:38;16.53;55.40
77519;DHT22;66629;47.346;19.038;2023-02-24T12:23:34;16.56;54.60
77519;DHT22;66629;47.346;19.038;2023-02-24T12:26:33;16.35;55.18
77519;DHT22;66629;47.346;19.038;2023-02-24T12:42:40;15.90;56.13
77519;DHT22;66629;47.346;19.038;2023-02-24T12:45:22;15.55;57.25
77519;DHT22;66629;47.346;19.038;2023-02-24T12:50:48;15.34;57.29
77519;DHT22;66629;47.346;19.038;2023-02-24T12:53:21;15.32;56.90
77519;DHT22;66629;47.346;19.038;2023-02-24T12:56:27;15.28;57.83
77519;DHT22;66629;47.346;19.038;2023-02-24T12:58:58;14.99;58.73
77519;DHT22;66629;47.346;19.038;2023-02-24T13:12:48;14.76;58.59
77519;DHT22;66629;47.346;19.038;2023-02-24T13:15:22;14.80;58.63
77519;DHT22;66629;47.346;19.038;2023-02-24T13:17:50;14.90;58.59
77519;DHT22;66629;47.346;19.038;2023-02-24T13:20:30;14.86;58.59
77519;DHT22;66629;47.346;19.038;2023-02-24T13:22:57;14.80;58.90
77519;DHT22;66629;47.346;19.038;2023-02-24T13:25:30;14.60;58.72
77519;DHT22;66629;47.346;19.038;2023-02-24T13:27:59;14.68;59.53
77519;DHT22;66629;47.346;19.038;2023-02-24T13:30:37;14.83;59.22
77519;DHT22;66629;47.346;19.038;2023-02-24T13:33:22;14.96;58.94
77519;DHT22;66629;47.346;19.038;2023-02-24T13:35:51;15.04;58.79
77519;DHT22;66629;47.346;19.038;2023-02-24T13:41:59;14.86;56.27
77519;DHT22;66629;47.346;19.038;2023-02-24T13:57:53;15.17;54.30
77519;DHT22;66629;47.346;19.038;2023-02-24T14:03:19;15.06;51.99
77519;DHT22;66629;47.346;19.038;2023-02-24T14:05:46;14.90;52.24
77519;DHT22;66629;47.346;19.038;2023-02-24T14:08:20;14.99;52.41
77519;DHT22;66629;47.346;19.038;2023-02-24T14:10:51;15.00;52.80
77519;DHT22;66629;47.346;19.038;2023-02-24T14:13:22;15.02;52.49
77519;DHT22;66629;47.346;19.038;2023-02-24T14:15:52;15.11;53.07
77519;DHT22;66629;47.346;19.038;2023-02-24T14:18:20;15.03;53.68
77519;DHT22;66629;47.346;19.038;2023-02-24T14:20:46;14.99;53.72
77519;DHT22;66629;47.346;19.038;2023-02-24T14:23:38;14.94;54.76
77519;DHT22;66629;47.346;19.038;2023-02-24T14:26:07;14.97;54.16
77519;DHT22;66629;47.346;19.038;2023-02-24T14:28:38;14.89;54.30
77519;DHT22;66629;47.346;19.038;2023-02-24T14:31:14;14.94;54.36
77519;DHT22;66629;47.346;19.038;2023-02-24T14:33:43;14.93;54.74
77519;DHT22;66629;47.346;19.038;2023-02-24T14:36:17;14.93;55.26
77519;DHT22;66629;47.346;19.038;2023-02-24T14:38:43;14.89;55.12
77519;DHT22;66629;47.346;19.038;2023-02-24T14:41:20;14.78;55.91
77519;DHT22;66629;47.346;19.038;2023-02-24T14:43:46;14.82;55.40
77519;DHT22;66629;47.346;19.038;2023-02-24T14:46:12;14.76;55.90
77519;DHT22;66629;47.346;19.038;2023-02-24T14:48:37;14.71;55.83
77519;DHT22;66629;47.346;19.038;2023-02-24T14:51:32;14.71;55.99
77519;DHT22;66629;47.346;19.038;2023-02-24T14:54:02;14.73;56.59
77519;DHT22;66629;47.346;19.038;2023-02-24T14:56:31;14.64;56.21
77519;DHT22;66629;47.346;19.038;2023-02-24T15:04:12;14.49;57.31
77519;DHT22;66629;47.346;19.038;2023-02-24T15:06:41;14.45;57.34
77519;DHT22;66629;47.346;19.038;2023-02-24T15:09:35;14.41;57.53
77519;DHT22;66629;47.346;19.038;2023-02-24T15:12:19;14.37;57.99
77519;DHT22;66629;47.346;19.038;2023-02-24T15:15:06;14.34;57.80
77519;DHT22;66629;47.346;19.038;2023-02-24T15:17:37;14.26;57.99
77519;DHT22;66629;47.346;19.038;2023-02-24T15:22:49;14.14;58.59
77519;DHT22;66629;47.346;19.038;2023-02-24T15:27:51;14.03;58.90
77519;DHT22;66629;47.346;19.038;2023-02-24T15:30:28;14.03;59.78
77519;DHT22;66629;47.346;19.038;2023-02-24T15:33:06;13.92;59.59
77519;DHT22;66629;47.346;19.038;2023-02-24T15:35:38;13.89;60.00
77519;DHT22;66629;47.346;19.038;2023-02-24T15:38:20;13.96;60.12
77519;DHT22;66629;47.346;19.038;2023-02-24T15:40:51;13.93;59.87
77519;DHT22;66629;47.346;19.038;2023-02-24T15:43:36;13.89;59.89
77519;DHT22;66629;47.346;19.038;2023-02-24T15:46:28;13.90;60.49
77519;DHT22;66629;47.346;19.038;2023-02-24T15:48:55;13.86;60.78
77519;DHT22;66629;47.346;19.038;2023-02-24T15:51:29;13.81;60.79
77519;DHT22;66629;47.346;19.038;2023-02-24T15:53:56;13.79;60.78
77519;DHT22;66629;47.346;19.038;2023-02-24T15:56:23;13.71;60.94
77519;DHT22;66629;47.346;19.038;2023-02-24T15:58:49;13.72;61.35
77519;DHT22;66629;47.346;19.038;2023-02-24T16:01:14;13.67;61.96
77519;DHT22;66629;47.346;19.038;2023-02-24T16:03:40;13.67;61.60
77519;DHT22;66629;47.346;19.038;2023-02-24T16:06:06;13.60;61.53
77519;DHT22;66629;47.346;19.038;2023-02-24T16:08:38;13.54;61.21
77519;DHT22;66629;47.346;19.038;2023-02-24T16:11:09;13.53;61.32
77519;DHT22;66629;47.346;19.038;2023-02-24T16:13:34;13.50;61.90
77519;DHT22;66629;47.346;19.038;2023-02-24T16:16:00;13.44;61.93
77519;DHT22;66629;47.346;19.038;2023-02-24T16:18:25;13.36;60.72
77519;DHT22;66629;47.346;19.038;2023-02-24T16:20:51;13.37;60.20
77519;DHT22;66629;47.346;19.038;2023-02-24T16:23:23;13.33;59.64
77519;DHT22;66629;47.346;19.038;2023-02-24T16:25:56;13.33;59.70
77519;DHT22;66629;47.346;19.038;2023-02-24T16:28:22;13.28;60.18
77519;DHT22;66629;47.346;19.038;2023-02-24T16:30:49;13.24;59.42
77519;DHT22;66629;47.346;19.038;2023-02-24T16:33:17;13.19;59.32
77519;DHT22;66629;47.346;19.038;2023-02-24T16:35:43;13.18;59.59
77519;DHT22;66629;47.346;19.038;2023-02-24T16:38:13;13.10;60.03
77519;DHT22;66629;47.346;19.038;2023-02-24T16:40:44;13.03;59.90
77519;DHT22;66629;47.346;19.038;2023-02-24T16:43:10;12.98;60.04
77519;DHT22;66629;47.346;19.038;2023-02-24T16:45:37;12.95;60.18
77519;DHT22;66629;47.346;19.038;2023-02-24T16:48:15;12.92;59.97
77519;DHT22;66629;47.346;19.038;2023-02-24T16:50:42;12.89;60.47
77519;DHT22;66629;47.346;19.038;2023-02-24T16:53:12;12.80;60.69
77519;DHT22;66629;47.346;19.038;2023-02-24T16:55:39;12.77;60.81
77519;DHT22;66629;47.346;19.038;2023-02-24T16:58:04;12.75;61.00
77519;DHT22;66629;47.346;19.038;2023-02-24T17:00:30;12.71;61.21
77519;DHT22;66629;47.346;19.038;2023-02-24T17:02:56;12.68;61.11
77519;DHT22;66629;47.346;19.038;2023-02-24T17:05:24;12.63;61.34
77519;DHT22;66629;47.346;19.038;2023-02-24T17:07:52;12.60;61.47
77519;DHT22;66629;47.346;19.038;2023-02-24T17:10:18;12.53;61.61
77519;DHT22;66629;47.346;19.038;2023-02-24T17:12:44;12.53;61.61
77519;DHT22;66629;47.346;19.038;2023-02-24T17:15:22;12.53;61.70
77519;DHT22;66629;47.346;19.038;2023-02-24T17:17:48;12.49;61.85
77519;DHT22;66629;47.346;19.038;2023-02-24T17:20:16;12.47;61.75
77519;DHT22;66629;47.346;19.038;2023-02-24T17:22:43;12.39;62.08
77519;DHT22;66629;47.346;19.038;2023-02-24T17:25:29;12.34;62.22
77519;DHT22;66629;47.346;19.038;2023-02-24T17:27:55;12.30;62.28
77519;DHT22;66629;47.346;19.038;2023-02-24T17:30:28;12.25;62.47
77519;DHT22;66629;47.346;19.038;2023-02-24T17:32:55;12.21;62.54
77519;DHT22;66629;47.346;19.038;2023-02-24T17:35:20;12.19;62.56
77519;DHT22;66629;47.346;19.038;2023-02-24T17:37:46;12.18;62.72
77519;DHT22;66629;47.346;19.038;2023-02-24T17:40:12;12.14;63.07
77519;DHT22;66629;47.346;19.038;2023-02-24T17:42:38;12.09;62.99
77519;DHT22;66629;47.346;19.038;2023-02-24T17:45:04;12.08;63.21
77519;DHT22;66629;47.346;19.038;2023-02-24T17:47:31;12.16;62.48
77519;DHT22;66629;47.346;19.038;2023-02-24T17:49:57;12.15;62.65
77519;DHT22;66629;47.346;19.038;2023-02-24T17:52:22;12.15;62.66
77519;DHT22;66629;47.346;19.038;2023-02-24T17:54:48;12.05;63.19
77519;DHT22;66629;47.346;19.038;2023-02-24T17:57:15;11.91;63.40
77519;DHT22;66629;47.346;19.038;2023-02-24T17:59:44;11.87;63.32
77519;DHT22;66629;47.346;19.038;2023-02-24T18:02:14;11.83;63.43
77519;DHT22;66629;47.346;19.038;2023-02-24T18:04:40;11.85;63.09
77519;DHT22;66629;47.346;19.038;2023-02-24T18:07:07;11.78;63.63
77519;DHT22;66629;47.346;19.038;2023-02-24T18:09:32;11.73;63.48
77519;DHT22;66629;47.346;19.038;2023-02-24T18:11:58;11.71;63.78
77519;DHT22;66629;47.346;19.038;2023-02-24T18:14:23;11.67;63.84
77519;DHT22;66629;47.346;19.038;2023-02-24T18:16:49;11.60;64.33
77519;DHT22;66629;47.346;19.038;2023-02-24T18:19:14;11.53;64.29
77519;DHT22;66629;47.346;19.038;2023-02-24T18:21:39;11.47;64.59
77519;DHT22;66629;47.346;19.038;2023-02-24T18:24:05;11.39;64.83
77519;DHT22;66629;47.346;19.038;2023-02-24T18:26:31;11.35;64.89
77519;DHT22;66629;47.346;19.038;2023-02-24T18:28:56;11.29;65.14
77519;DHT22;66629;47.346;19.038;2023-02-24T18:31:25;11.21;65.37
77519;DHT22;66629;47.346;19.038;2023-02-24T18:33:51;11.16;65.42